Date,TemperatureHighF,TemperatureAvgF,TemperatureLowF,DewpointHighF,DewpointAvgF,DewpointLowF,HumidityHigh,HumidityAvg,HumidityLow,PressureMaxIn,PressureMinIn,WindSpeedMaxMPH,WindSpeedAvgMPH,GustSpeedMaxMPH,PrecipitationSumIn
2014-1-1,13.6,11.3,9.7,11.2,5.8,0.3,92,79,61,30.25,30.08,15,7,21,0.00
2014-1-2,17.8,10.2,2.1,11.1,7.5,-1.6,91,89,68,30.15,29.99,20,12,26,0.00
2014-1-3,46.6,-5.1,-6.2,-7.1,-9.4,-10.7,82,81,80,30.37,29.59,27,4,27,0.00
2014-1-4,33.4,30.5,28.6,27.9,23.8,18.8,95,77,57,29.89,29.73,32,14,32,0.00
2014-1-5,91.2,26.7,17.1,90.9,26.2,16.4,99,98,95,29.91,29.51,46,10,46,0.00
2014-1-6,17.1,4.5,-14.8,16.4,1.5,-20.2,97,87,76,29.92,29.52,34,16,34,0.00
2014-1-7,3.2,-6.0,-14.8,-1.3,-10.8,-20.2,83,79,76,30.15,29.91,30,16,30,0.00
2014-1-8,19.4,7.8,-2.4,16.3,5.1,-6.3,94,89,83,32.31,30.14,21,7,21,0.00
2014-1-9,22.1,12.1,0.1,21.4,9.9,-2.1,98,91,83,30.43,30.13,13,5,14,0.00
2014-1-10,40.3,32.3,21.7,32.1,25.5,18.7,99,78,52,30.97,29.52,20,9,20,0.26
2014-1-11,43.2,38.5,33.1,30.6,10.7,-15.3,69,35,11,29.53,29.20,29,13,29,0.13
2014-1-12,41.4,35.3,32.5,31.7,21.9,0.5,83,61,25,29.79,29.52,25,14,25,0.00
2014-1-13,47.3,40.6,34.7,38.2,34.3,30.8,95,78,68,29.59,29.42,28,13,28,0.00
2014-1-14,42.6,32.6,23.7,33.5,27.8,21.2,98,83,63,33.58,29.52,38,11,38,0.06
2014-1-15,55.4,32.5,24.6,52.5,26.1,15.9,90,77,63,31.55,29.55,39,14,39,0.14
2014-1-16,55.4,33.8,21.2,52.5,30.3,16.6,96,87,72,30.92,29.48,21,11,20,0.05
2014-1-17,32.9,26.4,19.6,28.7,22.3,14.1,97,84,75,30.75,29.47,51,12,51,0.00
2014-1-18,19.6,19.6,19.6,14.1,14.1,14.1,79,79,79,29.77,29.77,7,7,7,0.00
2014-1-19,30.2,23.6,19.6,26.9,18.1,-14.8,88,79,14,29.77,29.38,29,10,29,0.11
2014-1-20,30.9,20.9,8.8,29.0,15.8,-3.4,98,81,58,29.96,29.38,29,9,29,0.00
2014-1-21,9.0,6.4,6.3,-3.2,-6.4,-6.5,57,55,54,30.96,29.95,37,36,37,0.02
2014-1-22,8.2,6.4,6.3,5.4,-5.5,-6.5,96,58,55,29.95,28.63,37,34,37,0.00
2014-1-23,9.5,5.3,-4.9,4.2,0.2,-12.8,85,79,58,29.31,28.80,6,4,6,0.05
2014-1-24,3.6,2.8,-4.7,-2.0,-2.6,-12.0,78,77,70,29.28,29.21,8,8,8,0.00
2014-1-25,24.3,12.2,3.2,23.0,5.6,-2.1,96,75,50,29.21,28.16,23,10,23,0.00
2014-1-26,12.0,12.0,12.0,3.5,3.5,3.5,68,68,68,28.48,28.48,6,6,6,0.00
2014-1-27,12.0,7.8,-6.9,3.5,-1.2,-14.1,71,66,50,30.03,28.48,18,7,18,0.00
2014-1-28,8.8,-8.4,-20.4,-1.9,-15.9,-29.4,73,69,60,29.15,29.04,17,8,17,0.00
2014-1-29,13.5,-19.3,-20.4,3.9,-28.4,-29.4,65,62,62,31.10,29.05,21,12,13,0.05
2014-1-30,28.9,12.3,-20.4,27.0,2.6,-29.4,93,66,52,31.10,28.61,31,16,31,0.00
2014-1-31,33.4,28.4,22.3,30.0,22.1,14.1,94,77,59,31.09,28.67,22,6,22,0.00
2014-2-1,29.5,26.0,22.5,29.2,24.3,18.6,99,93,77,29.89,28.72,9,4,9,0.00
2014-2-2,27.9,21.5,10.6,24.5,19.1,7.1,98,90,80,30.11,28.85,12,3,12,0.00
2014-2-3,25.5,11.3,1.0,19.0,6.8,-2.2,92,82,73,29.24,29.12,9,2,24,0.00
2014-2-4,134.2,19.3,1.4,99.9,11.9,-2.8,88,75,33,30.32,29.19,32,4,32,0.00
2014-2-5,24.3,18.4,9.3,22.2,15.4,4.1,99,88,68,30.06,25.25,105,11,105,0.00
2014-2-6,22.5,12.9,7.0,16.8,7.2,0.5,86,78,66,30.13,29.08,21,9,21,0.00
2014-2-7,15.8,7.3,0.0,6.3,-0.6,-6.3,79,70,62,29.15,28.83,25,12,25,0.00
2014-2-8,23.9,12.3,-0.2,13.3,4.7,-7.7,82,71,61,30.16,29.01,16,7,16,0.00
2014-2-9,27.7,18.1,13.1,18.3,11.8,8.5,99,76,57,29.02,28.68,13,4,13,0.00
2014-2-10,25.2,14.7,6.6,16.0,7.6,2.8,87,74,56,29.24,29.01,11,4,11,0.00
2014-2-11,11.8,7.9,7.3,4.1,-0.8,-1.6,71,67,66,29.29,29.23,7,2,7,0.00
2014-2-12,28.0,14.0,7.3,11.0,2.5,-6.6,66,60,46,29.29,28.96,13,3,13,0.00
2014-2-13,36.9,25.1,18.3,15.1,11.1,8.0,69,56,38,29.85,28.47,15,6,15,0.00
2014-2-21,37.4,33.8,24.6,32.2,24.9,15.8,83,70,57,28.60,28.31,45,26,45,4.36
2014-2-22,36.3,30.7,24.6,22.6,14.7,9.9,66,52,38,29.02,28.58,33,16,33,0.11
2014-2-23,37.8,23.2,18.1,21.7,12.8,8.8,77,64,51,28.93,28.84,23,11,23,0.00
2014-2-24,25.9,20.1,14.4,14.2,10.4,5.1,79,66,56,29.05,28.90,24,11,24,0.00
2014-2-25,26.2,17.0,8.8,15.2,8.1,1.8,80,68,57,29.03,28.86,21,8,21,0.00
2014-2-26,19.9,10.4,1.2,3.3,-0.5,-5.0,77,62,46,28.96,28.46,28,12,28,0.00
2014-2-27,12.4,6.9,-6.9,7.4,-4.7,-17.5,80,59,35,29.07,28.37,25,9,25,0.00
2014-2-28,20.7,6.4,-12.3,6.8,-6.8,-20.4,67,55,38,29.17,28.94,17,6,17,0.00
2014-3-1,27.0,21.2,16.3,21.1,14.3,6.1,90,75,62,29.10,28.90,12,5,12,0.00
2014-3-2,14.2,4.5,-6.0,11.5,-0.2,-11.3,89,81,73,29.33,29.13,8,3,11,0.00
2014-3-3,16.7,6.3,-2.2,7.6,-2.3,-10.2,85,67,60,30.31,29.19,10,2,10,0.25
2014-3-4,25.0,14.6,-0.9,12.8,4.7,-8.4,73,65,47,29.25,29.07,16,5,16,0.00
2014-3-5,22.3,16.3,9.0,13.5,8.4,2.9,84,71,59,29.39,29.12,16,6,17,0.00
2014-3-6,35.6,18.7,3.0,15.3,8.0,-0.7,86,66,39,29.38,29.01,10,5,10,0.00
2014-3-7,48.2,32.6,14.5,30.3,19.1,7.1,79,59,38,29.01,28.77,16,7,16,0.00
2014-3-8,41.0,30.4,19.0,30.6,23.4,-4.5,94,76,59,30.31,28.79,18,7,19,0.00
2014-3-9,39.9,27.7,12.2,30.0,19.6,8.6,87,72,53,29.09,28.68,30,11,30,0.00
2014-3-10,53.2,43.3,35.2,38.8,34.8,29.7,82,73,57,29.44,28.43,24,13,24,0.00
2014-3-11,59.7,44.3,38.3,44.5,36.9,34.9,94,76,49,28.65,28.51,10,4,10,0.05
2014-3-12,38.7,22.5,8.2,38.1,21.0,4.1,99,94,76,29.17,28.52,34,15,34,0.13
2014-3-13,28.4,15.3,-1.8,20.0,7.5,-6.2,88,72,50,29.01,28.81,15,8,15,0.00
2014-3-14,54.0,35.2,21.2,35.7,24.1,10.6,78,65,48,29.42,28.39,32,13,32,0.00
2014-3-15,39.0,34.4,22.3,33.2,23.4,11.0,84,65,47,29.17,28.58,20,10,20,0.00
2014-3-16,22.6,15.6,8.8,10.5,3.1,-2.9,70,58,41,29.28,25.34,20,12,105,0.00
2014-3-17,39.0,20.1,4.3,12.0,4.3,-2.0,79,53,30,29.08,28.78,10,4,10,0.06
2014-3-18,55.9,36.9,21.2,34.8,23.7,10.3,77,60,42,29.17,28.74,13,5,13,0.06
2014-3-19,46.9,39.7,34.3,46.7,37.2,27.8,99,91,73,29.28,28.46,30,10,30,0.22
2014-3-20,39.0,34.7,28.0,35.3,27.4,19.2,99,76,55,29.84,28.68,23,9,23,0.00
2014-3-21,52.2,34.5,18.0,33.7,24.2,15.2,96,69,42,29.13,28.58,15,5,15,0.11
2014-3-22,45.3,35.8,24.1,37.5,29.7,13.3,99,80,57,29.17,28.55,21,7,21,0.19
2014-3-23,28.0,20.5,12.6,13.8,6.7,2.1,65,55,42,29.25,29.13,18,8,19,0.00
2014-3-24,33.1,26.5,19.4,17.6,11.8,9.1,67,54,42,29.18,28.94,20,8,20,0.00
2014-3-25,33.4,24.5,15.3,22.6,14.3,6.1,86,66,44,29.14,28.78,21,8,21,0.00
2014-3-26,35.2,22.4,6.8,17.6,10.0,1.0,85,61,41,29.20,29.02,16,5,17,0.00
2014-3-27,42.8,35.9,28.9,39.3,27.9,16.8,93,73,57,29.17,28.50,22,11,22,0.07
2014-3-28,41.2,41.2,41.2,39.3,39.3,39.3,93,93,93,28.50,28.50,14,14,14,0.07
2014-3-29,41.2,41.2,41.2,39.3,39.3,39.3,93,93,93,28.50,28.50,14,14,14,0.07
2014-3-30,41.2,41.2,41.2,39.3,39.3,39.3,93,93,93,28.50,28.50,14,14,14,0.07
2014-3-31,41.2,41.2,41.2,39.3,39.3,39.3,93,93,93,28.50,28.50,14,14,14,0.07
2014-4-1,62.8,42.0,36.0,47.4,35.6,27.0,93,80,32,28.92,28.50,26,13,26,0.11
2014-4-2,62.8,41.8,28.2,53.2,28.3,22.4,81,60,32,29.08,24.24,13,5,13,0.00
2014-4-3,41.7,37.4,34.0,34.5,28.0,20.1,81,69,54,29.07,28.74,23,8,23,0.04
2014-4-4,49.5,39.6,35.4,49.2,38.2,31.2,99,95,78,28.70,28.31,34,11,35,0.18
2014-4-5,50.4,38.8,30.9,33.1,25.8,19.7,91,62,36,29.06,28.60,23,8,23,0.18
2014-4-6,65.3,44.9,26.8,36.0,27.3,20.5,83,54,29,29.09,28.90,14,5,14,0.18
2014-4-7,58.6,44.0,34.0,41.3,31.1,24.5,99,63,33,28.91,28.41,15,5,15,0.31
2014-4-8,63.7,49.7,38.7,40.4,34.8,30.7,99,60,35,28.73,28.40,16,6,16,0.31
2014-4-9,62.2,47.8,32.5,34.1,29.6,21.5,76,52,29,28.90,28.73,18,6,19,0.31
2014-4-10,71.6,57.7,48.3,49.0,40.9,34.2,62,54,40,28.80,28.53,41,15,41,0.47
2014-4-11,71.1,54.3,34.5,39.5,32.8,27.7,82,48,23,28.93,28.78,23,4,23,0.47
2014-4-12,79.0,58.8,43.0,50.4,37.8,28.4,67,48,25,28.98,28.67,40,6,40,0.50
2014-4-22,54.1,54.1,54.1,52.7,52.7,52.7,95,95,95,28.65,28.65,6,6,10,0.00
2014-4-23,54.1,54.1,54.1,52.7,52.7,52.7,95,95,95,28.65,28.65,6,6,10,0.00
2014-4-24,54.1,54.1,54.1,52.7,52.7,52.7,95,95,95,28.65,28.65,6,6,10,0.00
2014-4-25,54.1,54.1,54.1,52.7,52.7,52.7,95,95,95,28.65,28.65,6,6,10,0.00
2014-4-26,54.1,54.1,54.1,52.7,52.7,52.7,95,95,95,28.65,28.65,6,6,10,0.00
2014-4-27,54.1,54.1,54.1,52.7,52.7,52.7,95,95,95,28.65,28.65,6,6,10,0.00
2014-4-28,56.1,54.0,52.2,52.7,40.7,37.1,95,62,50,28.78,28.65,21,10,21,0.00
2014-4-29,82.2,61.6,48.0,66.3,51.4,37.9,99,74,34,28.71,28.44,38,9,38,0.77
2014-4-30,75.2,61.5,54.0,59.4,55.2,51.8,99,82,53,28.69,25.66,20,9,105,0.79
2014-5-1,55.4,48.8,42.3,52.0,43.8,39.8,99,84,61,28.68,28.61,29,12,29,0.94
2014-5-2,56.8,49.3,45.0,51.1,47.3,44.7,99,93,74,28.68,28.59,24,10,24,1.00
2014-5-3,61.5,51.7,46.0,53.1,45.4,36.4,99,82,52,28.72,25.66,31,10,105,1.39
2014-5-4,57.4,50.8,44.4,45.7,36.0,30.4,86,59,39,28.99,28.72,25,6,25,1.39
2014-5-5,68.2,50.4,38.7,46.2,38.9,33.3,86,67,39,29.00,28.85,10,3,10,1.39
2014-5-6,64.9,51.4,38.8,43.7,40.1,37.0,99,68,44,29.13,28.89,17,6,17,1.39
2014-5-7,70.9,53.3,42.4,59.0,47.2,34.5,99,80,63,29.13,28.84,20,7,20,0.43
2014-5-8,92.1,72.9,51.8,73.5,62.5,50.1,95,72,53,28.88,28.75,20,8,20,0.43
2014-5-9,80.8,73.4,61.3,67.9,63.6,53.2,93,72,55,28.78,28.57,41,13,41,1.85
2014-5-10,72.9,61.5,49.5,53.3,46.5,38.5,89,61,36,28.89,28.69,25,8,25,1.93
2014-5-11,90.0,68.4,43.0,62.6,51.9,39.9,93,60,33,28.97,25.10,21,6,105,1.93
2014-5-12,70.7,66.9,62.4,70.4,65.2,47.1,99,95,72,29.24,28.82,18,5,18,3.28
2014-5-13,90.3,71.7,56.8,77.9,69.4,52.7,99,94,63,29.24,28.76,30,8,30,3.86
2014-5-14,66.2,55.9,45.0,62.3,53.5,44.7,99,93,69,29.04,28.88,18,6,18,4.11
2014-5-15,53.4,46.7,40.6,52.1,46.2,-51.0,99,98,51,31.11,24.99,23,10,105,4.97
2014-5-16,60.4,45.3,34.7,45.6,38.5,34.2,99,79,55,28.93,28.87,14,4,14,4.97
2014-5-17,62.2,49.4,41.0,48.0,41.0,36.8,92,75,46,29.07,28.92,22,4,22,5.03
2014-5-18,72.7,56.8,39.4,48.1,41.7,36.3,94,61,36,29.13,29.07,20,8,20,5.03
2014-5-19,81.7,64.3,46.4,50.7,43.9,38.7,76,50,30,29.19,29.02,16,6,16,5.03
2014-5-20,88.2,69.2,53.6,69.0,58.1,43.4,93,70,50,29.12,28.75,22,8,22,5.17
2014-5-21,88.5,75.0,61.2,75.1,66.0,42.8,99,76,45,29.24,28.68,21,5,21,5.26
2014-5-22,75.0,64.9,56.8,58.1,54.1,46.6,99,70,49,29.24,25.16,20,7,105,5.26
2014-5-23,73.9,60.2,48.6,57.1,49.7,43.4,87,69,51,29.07,28.97,14,5,14,5.26
2014-5-24,86.7,67.0,48.6,60.0,53.4,48.3,99,67,38,29.13,29.03,10,2,10,5.26
2014-5-25,92.3,73.4,50.9,64.6,57.4,50.6,99,63,36,29.08,28.95,14,4,14,5.26
2014-5-26,92.5,76.6,56.3,67.5,61.7,53.8,94,63,39,29.25,28.83,18,6,19,5.26
2014-5-27,89.1,76.9,66.7,77.4,71.9,66.5,99,86,62,28.87,28.76,21,6,21,5.28
2014-5-28,72.5,65.3,56.8,72.2,62.5,54.3,99,91,72,29.01,28.81,13,5,13,5.72
2014-5-29,79.2,64.6,50.0,66.4,57.5,49.7,99,80,56,29.08,28.99,13,4,13,5.72
2014-5-30,92.5,71.1,50.9,66.9,58.6,50.6,99,69,38,29.13,29.05,11,2,11,5.72
2014-5-31,93.7,75.6,58.5,67.1,61.6,45.5,99,66,40,29.16,29.04,11,3,11,5.72
2014-6-1,95.7,77.2,56.8,68.5,57.0,43.5,66,51,38,29.21,28.88,46,6,47,5.72
2014-6-2,91.2,78.3,68.0,77.6,68.6,56.5,87,73,60,29.04,28.72,35,10,35,5.73
2014-6-3,79.9,69.4,55.4,73.3,59.2,53.6,99,73,50,28.84,28.71,16,4,26,0.04
2014-6-4,71.1,61.3,49.6,67.4,59.5,48.5,100,94,73,28.86,28.75,5,1,7,0.01
2014-6-5,125.1,78.7,59.2,99.9,55.6,46.0,72,46,36,28.88,28.80,22,4,22,0.04
2014-6-6,88.9,70.7,48.9,67.1,53.0,45.2,90,58,32,28.93,28.86,12,4,12,0.04
2014-6-7,96.4,75.2,53.1,66.3,56.7,50.4,99,58,30,28.98,28.79,11,3,11,0.04
2014-6-8,80.6,69.6,61.2,63.6,58.1,50.4,93,68,45,29.02,28.73,16,6,17,0.09
2014-6-9,132.8,71.6,57.7,99.9,61.4,57.5,99,73,41,28.94,28.84,38,4,38,0.09
2014-6-10,84.4,70.5,56.5,67.5,60.1,53.9,96,71,55,28.88,28.79,13,4,13,0.09
2014-6-11,84.9,71.4,59.2,79.8,67.1,54.1,99,87,58,28.79,28.61,14,4,14,0.63
2014-6-12,84.2,77.4,68.7,76.5,70.8,67.2,99,81,66,28.69,28.64,13,6,13,0.90
2014-6-24,76.1,73.6,68.9,75.5,73.2,68.6,99,99,98,28.80,28.78,1,0,1,0.81
2014-6-25,77.0,69.3,63.5,73.0,68.4,63.0,99,97,85,28.93,28.80,48,4,88,0.83
2014-6-26,89.1,70.9,56.8,72.7,65.3,56.6,99,84,54,28.99,28.92,9,3,9,0.83
2014-6-27,99.3,81.0,59.4,75.2,68.9,59.1,99,70,45,29.04,28.97,10,3,10,0.83
2014-6-28,98.4,80.8,63.9,80.2,75.5,63.6,99,85,52,29.03,28.93,18,4,18,0.83
2014-6-29,92.8,81.2,72.0,81.0,75.2,71.5,99,84,56,28.96,28.82,27,8,27,0.83
2014-6-30,95.4,82.7,73.4,82.0,77.2,73.1,99,85,65,28.86,25.06,18,8,105,0.83
2014-7-1,89.6,78.4,63.9,77.7,71.1,63.6,99,80,55,29.05,28.55,27,10,27,1.52
2014-7-2,83.3,73.2,65.5,71.9,65.5,61.2,99,79,54,28.86,28.66,21,7,21,1.52
2014-7-3,77.2,64.7,51.1,64.5,59.1,50.8,99,84,51,29.06,28.84,13,5,13,1.76
2014-7-4,79.3,65.8,53.1,66.8,56.3,51.8,99,75,42,29.20,29.06,16,4,17,1.77
2014-7-5,88.5,71.0,52.0,65.2,58.5,51.7,99,69,40,29.20,28.98,18,5,18,1.77
2014-7-6,89.2,75.8,61.9,74.5,67.2,57.6,99,76,55,28.99,28.61,21,9,21,1.77
2014-7-7,89.1,78.0,66.4,80.1,72.3,63.0,99,85,53,28.66,28.56,21,9,21,2.85
2014-7-8,79.5,70.9,64.8,74.1,67.4,63.3,99,89,66,28.67,28.48,24,7,24,3.78
2014-7-9,78.1,67.4,59.7,64.9,61.7,59.0,99,83,62,28.94,28.68,14,3,14,3.78
2014-7-10,79.9,66.9,56.3,65.8,60.3,56.0,99,81,56,29.10,28.94,10,3,10,3.78
2014-7-11,93.9,74.6,55.0,73.5,64.4,54.8,99,75,45,29.16,25.29,12,3,105,3.78
2014-7-12,97.2,79.2,63.3,77.2,71.2,63.0,99,79,51,29.08,28.79,21,6,21,3.78
2014-7-13,88.3,78.8,70.0,76.0,71.9,66.5,99,82,56,29.13,28.69,23,8,23,4.13
2014-7-14,86.9,73.7,63.1,76.1,66.6,62.7,99,81,49,28.78,28.68,11,3,11,3.98
2014-8-30,65.8,65.8,65.8,65.6,65.6,65.6,99,99,99,28.67,28.67,0,0,0,0.00
2014-8-31,91.0,77.9,68.7,80.7,74.1,68.4,99,90,63,28.87,28.80,41,5,41,0.00
2014-9-1,88.5,74.8,66.9,81.3,73.4,66.6,99,96,76,28.84,28.64,22,6,22,0.46
2014-9-2,83.8,74.9,62.4,75.1,69.2,40.1,99,84,35,28.87,25.00,28,4,105,0.46
2014-9-3,90.3,72.6,56.7,76.4,66.2,56.4,99,83,53,28.95,28.86,10,3,11,0.47
2014-9-4,88.9,74.9,64.0,78.3,71.7,63.8,99,91,70,28.96,28.84,22,7,22,0.47
2014-9-5,96.6,82.8,74.1,87.1,79.3,72.6,99,90,68,28.94,28.76,38,9,38,0.67
2014-9-6,76.5,68.7,57.6,64.4,60.5,57.3,99,77,57,29.06,28.98,12,3,12,1.00
2014-9-7,84.6,65.4,49.1,69.5,58.2,48.8,99,81,46,29.14,29.05,9,2,10,1.00
2014-9-8,85.5,66.8,50.9,69.7,59.2,50.4,99,80,46,29.11,28.97,9,2,10,1.00
2014-9-9,87.3,70.9,58.1,74.3,64.2,57.8,99,82,52,28.98,28.87,13,3,13,1.00
2014-9-10,77.5,70.7,65.1,77.2,69.7,62.0,99,97,87,28.89,28.45,27,8,27,1.44
2014-9-11,70.2,56.0,51.6,69.9,54.1,51.1,99,93,81,29.12,28.54,21,6,21,1.44
2014-9-12,59.2,53.1,49.5,57.0,52.4,49.2,99,98,89,29.21,28.94,10,4,10,1.48
2014-9-13,59.0,51.3,41.4,53.7,48.7,41.1,99,91,68,29.23,29.01,14,4,14,1.90
2014-9-14,69.6,53.3,39.7,59.0,47.6,39.5,99,84,52,29.24,29.09,16,4,17,1.90
2014-9-15,71.2,53.9,43.7,59.8,51.5,43.4,99,93,63,29.09,28.94,13,4,13,2.06
2014-9-16,71.4,57.5,47.5,61.5,52.3,45.6,99,85,53,29.08,28.97,13,3,13,2.06
2014-9-17,73.4,55.5,39.6,58.0,48.8,39.3,99,82,48,28.98,28.87,14,3,14,2.06
2014-9-18,64.0,55.0,46.2,59.6,53.0,46.0,99,94,80,29.12,28.92,12,4,12,2.06
2014-9-19,76.3,56.7,38.5,60.9,50.8,38.2,99,83,54,29.16,28.91,13,3,13,2.06
2014-9-20,83.8,67.5,54.9,72.8,63.3,53.6,99,88,68,28.92,28.65,31,12,31,2.08
2014-9-21,67.8,60.3,48.9,66.8,59.2,44.3,99,96,78,28.94,28.50,28,10,28,2.14
2014-9-22,64.8,53.7,45.1,52.5,47.6,42.3,99,81,59,29.16,28.94,16,4,16,2.14
2014-9-23,74.3,52.5,44.6,67.5,50.2,44.3,99,93,64,29.23,28.67,10,4,11,2.14
2014-10-25,36.9,36.9,36.9,36.6,36.6,36.6,99,99,99,28.95,28.95,0,0,0,0.00
2014-10-26,62.2,49.3,43.3,49.0,36.1,29.4,99,61,43,28.86,28.71,20,2,20,0.00
2014-10-27,77.0,56.3,32.7,64.3,47.7,31.1,98,75,53,28.86,28.56,20,7,20,0.00
2014-10-28,70.7,61.5,48.7,62.0,54.1,40.1,99,78,52,28.78,28.57,26,12,26,0.08
2014-10-29,51.8,46.5,42.3,45.1,40.6,37.6,94,80,68,28.98,28.51,16,7,17,0.08
2014-10-30,54.0,44.5,36.1,45.5,40.3,35.6,99,86,66,29.04,28.89,13,4,13,0.08
2014-10-31,45.9,39.3,32.9,42.8,38.0,29.6,99,95,83,29.08,28.79,34,12,34,0.35
2014-11-1,38.7,32.5,23.0,29.8,25.0,19.0,90,74,53,29.26,28.51,31,13,31,0.35
2014-11-2,51.6,35.1,19.4,35.9,25.2,11.4,99,71,38,29.32,28.51,16,4,16,0.35
2014-11-3,60.4,50.8,39.4,42.3,33.9,25.9,66,53,42,29.14,28.89,23,10,23,0.35
2014-11-4,58.8,53.9,42.4,53.5,45.9,37.6,99,77,47,28.91,28.73,27,14,27,0.38
2014-11-5,57.4,46.7,40.5,45.9,39.3,33.3,99,78,45,29.01,28.86,23,8,23,0.38
2014-11-6,49.6,44.7,36.7,46.9,41.6,34.3,99,89,71,28.95,28.63,28,7,28,0.40
2014-11-7,45.3,38.5,31.5,34.9,30.9,27.2,96,75,53,29.02,28.81,15,5,15,0.40
2014-11-8,44.4,39.9,35.8,43.4,37.0,33.6,99,90,78,28.82,28.58,18,8,18,0.47
2014-11-9,45.1,39.2,31.3,37.7,32.7,29.0,92,78,61,28.80,28.67,26,9,26,0.48
2014-11-10,60.4,48.5,39.4,45.8,38.9,34.2,89,71,53,28.82,28.61,21,7,21,0.48
2014-11-11,60.1,48.8,36.0,54.4,41.8,32.8,99,78,61,28.80,28.51,33,11,33,0.56
2014-11-12,36.0,33.1,29.5,32.8,25.8,23.8,88,74,65,29.10,28.80,23,9,23,0.56
2014-11-13,36.1,30.0,23.0,28.2,24.2,21.0,93,79,61,29.08,29.00,13,6,13,0.56
2014-11-14,35.8,28.6,22.1,29.7,23.5,18.4,99,82,59,29.21,29.06,13,6,13,0.56
2014-11-15,36.0,29.4,22.3,28.1,22.9,18.4,94,78,56,29.25,29.08,20,7,20,0.56
2014-11-16,35.6,30.6,26.8,30.4,26.1,21.1,92,83,73,29.09,28.76,14,7,14,0.56
2014-11-17,54.9,25.9,16.7,46.0,21.8,11.8,97,85,66,28.76,28.52,23,11,25,0.56
2014-11-18,24.6,16.8,12.2,16.8,11.9,9.0,90,81,63,28.94,28.64,28,16,28,0.56
2014-11-19,27.3,21.9,14.4,25.9,17.9,10.1,97,84,74,28.95,28.56,31,13,31,0.56
2014-11-20,28.8,21.4,12.7,24.2,17.6,9.9,94,85,65,29.05,28.72,28,9,28,0.56
2014-11-21,29.1,18.6,6.8,18.6,12.3,4.7,94,77,59,29.34,29.05,16,6,17,0.56
2014-11-22,50.7,38.1,20.1,50.3,34.9,13.2,99,89,67,29.16,28.79,23,12,23,0.58
2014-11-23,54.0,50.9,48.0,51.9,50.3,47.8,99,98,91,28.81,28.09,20,10,20,1.24
2014-11-24,57.2,53.4,42.4,56.9,53.0,40.3,99,99,92,29.02,27.92,43,16,43,2.62
2014-11-25,32.9,30.4,28.6,29.3,26.0,23.7,92,83,80,29.08,28.83,14,3,17,0.24
2014-11-26,34.5,30.5,27.1,28.7,26.2,24.9,93,84,72,29.06,28.98,6,2,9,0.00
2014-11-27,32.5,23.8,15.3,28.5,16.9,8.7,86,75,61,29.22,29.04,9,2,14,0.00
2014-11-28,30.0,26.9,21.4,25.7,21.4,16.7,91,80,65,29.20,28.92,15,8,15,0.00
2014-11-29,52.0,39.1,28.0,51.0,35.0,25.5,97,85,70,28.92,28.55,27,12,27,0.00
2014-11-30,59.7,51.3,34.0,55.8,50.1,33.7,99,96,87,29.00,28.54,24,12,25,0.00
2014-12-1,34.2,26.2,16.2,33.9,17.2,8.8,99,69,48,29.52,29.00,18,7,19,0.00
2014-12-2,36.5,27.7,14.5,28.3,18.1,-8.9,90,73,17,29.50,28.07,15,5,15,0.00
2014-12-3,42.6,32.9,26.1,41.8,25.5,-52.3,99,78,1,31.80,24.24,30,11,30,0.02
2014-12-4,30.7,26.2,20.5,21.6,16.5,14.4,82,67,52,29.34,25.51,10,3,105,0.02
2014-12-5,42.6,35.5,28.0,33.0,28.6,19.0,86,76,68,29.24,29.06,7,2,7,0.02
2014-12-6,40.3,34.1,26.6,34.4,28.0,20.2,98,79,60,29.52,28.85,22,9,22,0.02
2014-12-7,39.7,29.4,20.8,27.1,18.5,13.0,83,65,39,29.58,29.28,16,5,16,0.02
2014-12-8,43.3,36.9,32.2,34.6,29.1,24.9,99,74,59,29.28,28.91,20,9,20,0.07
2014-12-9,37.2,35.3,32.2,37.0,35.0,31.0,99,99,95,29.18,28.92,20,7,20,0.08
2014-12-10,32.2,27.1,22.3,31.2,24.6,19.2,96,90,82,29.21,29.01,18,8,18,0.08
2014-12-11,40.8,28.9,19.9,28.3,22.3,15.3,99,77,52,29.02,28.94,15,7,15,0.08
2014-12-12,35.8,32.5,28.4,35.0,32.1,28.2,99,99,96,29.11,29.00,14,7,14,0.08
2014-12-13,43.5,38.6,34.0,42.7,38.2,33.7,99,99,93,29.07,28.89,17,9,17,0.00
2014-12-14,51.6,47.5,43.0,49.4,45.8,36.8,99,94,85,28.96,28.60,20,4,20,0.08
2014-12-15,54.7,48.3,43.5,48.5,46.1,42.4,99,92,76,28.94,28.69,20,7,20,0.01
2014-12-16,46.4,43.9,36.3,46.1,43.7,36.1,99,99,99,28.79,28.55,22,6,22,0.24
2014-12-17,36.3,30.8,27.7,36.1,27.2,22.6,99,86,74,29.05,28.79,22,10,22,0.24
2014-12-18,46.6,30.7,27.3,45.5,29.9,25.5,99,97,88,29.10,25.28,15,5,105,0.00
2014-12-19,29.7,25.5,17.6,26.9,23.6,16.9,99,93,82,29.21,29.07,9,4,9,0.00
2014-12-20,38.8,25.4,16.5,31.6,23.6,16.1,99,93,80,29.19,28.88,7,2,7,0.00
2014-12-21,36.9,30.5,19.9,34.2,26.4,5.5,99,87,34,29.17,29.04,13,4,13,0.00
2014-12-22,44.8,33.8,25.7,42.4,30.6,-33.5,99,89,21,31.11,24.24,13,5,105,0.04
2014-12-23,52.7,43.8,36.5,52.4,43.5,36.2,99,99,99,28.72,25.65,15,6,105,0.05
2014-12-24,45.3,40.5,34.2,45.1,40.2,33.9,99,99,99,28.65,28.12,20,9,20,0.87
2014-12-25,38.5,36.0,33.8,36.6,34.0,21.8,99,93,84,29.02,28.35,26,12,26,0.90
2014-12-26,48.7,40.0,33.6,43.7,37.2,31.8,99,90,75,29.00,28.91,20,8,20,0.90
2014-12-27,50.0,44.3,37.0,49.6,43.3,33.5,99,96,85,28.98,28.77,30,10,30,0.90
2014-12-28,44.4,39.0,27.3,43.6,36.1,23.2,97,90,61,29.09,28.87,13,8,13,0.90
2014-12-29,44.4,36.1,17.2,43.6,31.9,11.1,97,85,53,29.31,28.98,13,7,13,0.90
2014-12-30,44.4,33.3,13.3,43.6,28.9,5.9,97,84,53,29.42,28.98,18,8,18,0.90
2014-12-31,44.4,27.6,13.8,43.6,21.5,3.5,97,78,53,29.36,28.90,31,13,31,0.90
2015-1-1,29.1,23.8,19.2,21.5,16.2,10.0,79,72,67,28.92,28.74,28,16,28,0.00
2015-1-2,36.3,29.0,23.0,24.3,21.1,16.6,92,72,58,29.21,28.76,21,4,21,0.00